Weather History for Wilkerson Pass, CO

Change the Weather History Date:

Friday, February 14, 2014

  Actual Average (KAFF) Record (KAFF)
Temperature  
Mean Temperature 24 °F -  
Max Temperature 32 °F 41 °F 66 °F (2000)
Min Temperature 17 °F 20 °F -2 °F (2007)
Degree Days  
Heating Degree Days 40    
Moisture  
Dew Point 19 °F    
Average Humidity 79    
Maximum Humidity 100    
Minimum Humidity 51    
Precipitation  
Precipitation 0.00 in - - ()
Sea Level Pressure  
Sea Level Pressure 30.05 in    
Wind  
Wind Speed 14 mph (West)    
Max Wind Speed 24 mph    
Max Gust Speed 46 mph    
Visibility 9 miles    
Events Fog , Snow    
Averages and records for this station are not official NWS values.
T = Trace of Precipitation, MM = Missing Value Source: NWS Daily Summary

Daily Weather History Graph

Daily Weather History Graph

Search for Another Location

Airport:

Trip Planner

Search our weather history database for the weather conditions in past years. The results will help you decide how hot, cold, wet, or windy it might be!

Date:

Astronomy

Feb. 14, 2014 Rise Set
Actual Time 6:54 AM MST 5:38 PM MST
Civil Twilight 6:27 AM MST 6:05 PM MST
Nautical Twilight 5:55 AM MST 6:37 PM MST
Astronomical Twilight 5:24 AM MST 7:08 PM MST
Moon 5:44 PM MST (2/14) 6:23 AM MST (2/14)
Length of Visible Light 11h 38m
Length of Day
10h 43m
Full, 100% of the Moon is Illuminated
Feb 14
Full
Feb 14
Full
Feb 22
Last Quarter
Mar 1
New
Mar 8
First Quarter

Hourly Weather History & Observations

Time (MST) Temp. Windchill Dew Point Humidity Pressure Visibility Wind Dir Wind Speed Gust Speed Precip Events Conditions
12:00 AM 23.0 °F 14.7 °F 21.2 °F 93% 29.98 in 0.8 mi WSW 6.9 mph 21.9 mph N/A Snow Light Snow
12:20 AM 23.0 °F 11.7 °F 21.2 °F 93% 29.97 in 0.5 mi West 11.5 mph 18.4 mph N/A Snow Light Snow
12:40 AM 21.2 °F 5.6 °F 19.4 °F 93% 29.96 in 3.0 mi West 20.7 mph 31.1 mph N/A Snow Light Snow
1:00 AM 21.2 °F 6.0 °F 19.4 °F 93% 29.95 in 0.8 mi West 19.6 mph 28.8 mph N/A Snow Light Snow
1:19 AM 21.2 °F 6.4 °F 19.4 °F 93% 29.94 in 1.8 mi West 18.4 mph - N/A Snow Light Snow
1:40 AM 21.2 °F - 19.4 °F 93% 29.95 in 0.5 mi North - - N/A Snow Heavy Snow
2:00 AM 21.2 °F 8.3 °F 19.4 °F 93% 29.97 in 0.2 mi West 13.8 mph 28.8 mph N/A Snow Heavy Snow
2:20 AM 21.2 °F 8.3 °F 19.4 °F 93% 29.96 in 0.2 mi West 13.8 mph 25.3 mph N/A Snow Heavy Snow
2:40 AM 21.2 °F 8.3 °F 19.4 °F 93% 29.98 in 0.5 mi West 13.8 mph 26.5 mph N/A Fog Light Freezing Fog
3:00 AM 19.4 °F 6.0 °F 17.6 °F 93% 29.99 in 7.0 mi West 13.8 mph 21.9 mph N/A   Mostly Cloudy
3:20 AM 19.4 °F 6.0 °F 17.6 °F 93% 30.00 in 10.0 mi West 13.8 mph 18.4 mph N/A   Scattered Clouds
3:40 AM 19.4 °F 7.2 °F 17.6 °F 93% 30.01 in 10.0 mi WNW 11.5 mph 18.4 mph N/A   Scattered Clouds
4:00 AM 19.4 °F 7.9 °F 15.8 °F 86% 30.01 in 10.0 mi West 10.4 mph 19.6 mph N/A   Scattered Clouds
4:20 AM 19.4 °F 7.9 °F 15.8 °F 86% 30.02 in 10.0 mi WNW 10.4 mph 24.2 mph N/A   Scattered Clouds
4:40 AM 17.6 °F 6.4 °F 14.0 °F 86% 30.02 in 10.0 mi NW 9.2 mph 23.0 mph N/A   Scattered Clouds
5:00 AM 17.6 °F 6.4 °F 14.0 °F 86% 30.03 in 10.0 mi WNW 9.2 mph 21.9 mph N/A   Clear
5:20 AM 17.6 °F 5.7 °F 14.0 °F 86% 30.05 in 10.0 mi NNW 10.4 mph 16.1 mph N/A   Clear
5:40 AM 17.6 °F 8.2 °F 14.0 °F 86% 30.05 in 10.0 mi NW 6.9 mph 21.9 mph N/A   Scattered Clouds
6:00 AM 17.6 °F 5.0 °F 14.0 °F 86% 30.04 in 10.0 mi WNW 11.5 mph 19.6 mph N/A   Scattered Clouds
6:20 AM 17.6 °F 5.7 °F 14.0 °F 86% 30.05 in 10.0 mi WNW 10.4 mph 24.2 mph N/A   Scattered Clouds
6:40 AM 17.6 °F 5.7 °F 14.0 °F 86% 30.06 in 10.0 mi NW 10.4 mph 17.3 mph N/A   Clear
6:59 AM 17.6 °F 5.0 °F 14.0 °F 86% 30.07 in 10.0 mi WNW 11.5 mph 20.7 mph N/A   Clear
7:20 AM 17.6 °F 3.2 °F 14.0 °F 86% 30.07 in 10.0 mi WNW 15.0 mph 23.0 mph N/A   Clear
7:40 AM 17.6 °F 3.7 °F 14.0 °F 86% 30.07 in 10.0 mi WNW 13.8 mph 28.8 mph N/A   Clear
8:00 AM 19.4 °F 7.2 °F 14.0 °F 80% 30.09 in 10.0 mi WNW 11.5 mph 25.3 mph N/A   Clear
8:20 AM 19.4 °F 5.5 °F 14.0 °F 80% 30.09 in 10.0 mi WNW 15.0 mph 31.1 mph N/A   Clear
8:40 AM 19.4 °F 6.0 °F 14.0 °F 80% 30.09 in 10.0 mi West 13.8 mph 26.5 mph N/A   Clear
9:00 AM 19.4 °F 6.6 °F 14.0 °F 80% 30.09 in 10.0 mi West 12.7 mph 25.3 mph N/A   Clear
9:20 AM 21.2 °F 6.4 °F 14.0 °F 74% 30.09 in 10.0 mi West 18.4 mph 28.8 mph N/A   Clear
9:40 AM 21.2 °F 6.8 °F 12.2 °F 68% 30.08 in 10.0 mi West 17.3 mph 33.4 mph N/A   Clear
10:00 AM 23.0 °F 9.6 °F 12.2 °F 63% 30.08 in 10.0 mi West 16.1 mph 31.1 mph N/A   Clear
10:20 AM 26.6 °F 13.4 °F 12.2 °F 55% 30.09 in 10.0 mi West 18.4 mph 34.5 mph N/A   Scattered Clouds
10:40 AM 26.6 °F 13.1 °F 12.2 °F 55% 30.09 in 10.0 mi West 19.6 mph 32.2 mph N/A   Clear
11:00 AM 28.4 °F 15.8 °F 12.2 °F 51% 30.08 in 10.0 mi WNW 18.4 mph 28.8 mph N/A   Clear
11:20 AM 28.4 °F 17.0 °F 12.2 °F 51% 30.08 in 10.0 mi West 15.0 mph 34.5 mph N/A   Clear
11:40 AM 28.4 °F 16.6 °F 14.0 °F 55% 30.08 in 10.0 mi West 16.1 mph 31.1 mph N/A   Clear
12:00 PM 30.2 °F 18.5 °F 14.0 °F 51% 30.08 in 10.0 mi West 17.3 mph 32.2 mph N/A   Clear
12:19 PM 30.2 °F 18.5 °F 17.6 °F 60% 30.07 in 10.0 mi West 17.3 mph 34.5 mph N/A   Clear
12:40 PM 32.0 °F 20.8 °F 19.4 °F 60% 30.06 in 10.0 mi West 17.3 mph 28.8 mph N/A   Clear
1:00 PM 32.0 °F 20.1 °F 19.4 °F 60% 30.06 in 10.0 mi West 19.6 mph 33.4 mph N/A   Clear
1:20 PM 32.0 °F 19.8 °F 21.2 °F 64% 30.05 in 10.0 mi West 20.7 mph 36.8 mph N/A   Clear
1:40 PM 32.0 °F 20.1 °F 21.2 °F 64% 30.05 in 10.0 mi West 19.6 mph 33.4 mph N/A   Clear
2:00 PM 30.2 °F 19.8 °F 21.2 °F 69% 30.05 in 10.0 mi WSW 13.8 mph 28.8 mph N/A   Clear
2:20 PM 30.2 °F 19.8 °F 21.2 °F 69% 30.05 in 10.0 mi WSW 13.8 mph 25.3 mph N/A   Clear
2:40 PM 30.2 °F 18.9 °F 21.2 °F 69% 30.06 in 10.0 mi WSW 16.1 mph 27.6 mph N/A   Scattered Clouds
3:00 PM 28.4 °F 18.5 °F 21.2 °F 74% 30.07 in 10.0 mi West 11.5 mph 26.5 mph N/A   Mostly Cloudy
3:19 PM 28.4 °F 18.0 °F 21.2 °F 74% 30.08 in 10.0 mi WSW 12.7 mph 25.3 mph N/A   Scattered Clouds
3:40 PM 30.2 °F 21.3 °F 23.0 °F 75% 30.08 in 10.0 mi WSW 10.4 mph 20.7 mph N/A   Clear
4:00 PM 30.2 °F 20.8 °F 23.0 °F 75% 30.08 in 10.0 mi WSW 11.5 mph 23.0 mph N/A   Clear
4:20 PM 30.2 °F 21.9 °F 24.8 °F 80% 30.08 in 10.0 mi WSW 9.2 mph 20.7 mph N/A   Scattered Clouds
4:40 PM 28.4 °F 19.1 °F 24.8 °F 86% 30.08 in 10.0 mi WSW 10.4 mph 17.3 mph N/A   Clear
5:00 PM 28.4 °F 16.6 °F 23.0 °F 80% 30.05 in 10.0 mi West 16.1 mph 28.8 mph N/A   Clear
5:20 PM 26.6 °F 12.7 °F 23.0 °F 86% 30.02 in 10.0 mi West 20.7 mph 36.8 mph N/A   Clear
5:40 PM 26.6 °F 11.7 °F 21.2 °F 80% 30.01 in 10.0 mi West 24.2 mph - N/A   Clear
6:00 PM 28.4 °F 14.1 °F 21.2 °F 74% 30.01 in 10.0 mi West 24.2 mph 46.0 mph N/A   Clear
6:20 PM 28.4 °F 14.7 °F 21.2 °F 74% 30.01 in 10.0 mi West 21.9 mph - N/A   Clear
6:40 PM 28.4 °F 15.1 °F 21.2 °F 74% 30.02 in 10.0 mi West 20.7 mph 39.1 mph N/A   Clear
7:00 PM 28.4 °F 15.1 °F 21.2 °F 74% 30.01 in 10.0 mi West 20.7 mph 36.8 mph N/A   Clear
7:20 PM 26.6 °F 13.1 °F 21.2 °F 80% 30.02 in 10.0 mi West 19.6 mph 34.5 mph N/A   Clear
7:40 PM 28.4 °F - 21.2 °F 74% 30.03 in 10.0 mi North - - N/A   Clear
8:00 PM 28.4 °F 14.4 °F 21.2 °F 74% 30.03 in 10.0 mi West 23.0 mph 41.4 mph N/A   Clear
8:20 PM 28.4 °F 15.4 °F 21.2 °F 74% 30.02 in 10.0 mi West 19.6 mph 44.9 mph N/A   Clear
8:40 PM 26.6 °F 11.7 °F 21.2 °F 80% 30.05 in 10.0 mi West 24.2 mph 38.0 mph N/A   Clear
9:00 PM 28.4 °F 15.4 °F 21.2 °F 74% 30.07 in 10.0 mi West 19.6 mph 32.2 mph N/A   Clear
9:20 PM 28.4 °F 16.2 °F 21.2 °F 74% 30.08 in 10.0 mi West 17.3 mph 28.8 mph N/A   Clear
9:40 PM 28.4 °F 17.5 °F 23.0 °F 80% 30.09 in 10.0 mi West 13.8 mph 31.1 mph N/A   Scattered Clouds
10:00 PM 26.6 °F 15.2 °F 23.0 °F 86% 30.09 in 10.0 mi WSW 13.8 mph 24.2 mph N/A   Mostly Cloudy
10:20 PM 26.6 °F 15.2 °F 24.8 °F 93% 30.09 in 10.0 mi WSW 13.8 mph 24.2 mph N/A   Mostly Cloudy
10:39 PM 26.6 °F 15.2 °F 24.8 °F 93% 30.09 in 10.0 mi WSW 13.8 mph 27.6 mph N/A   Scattered Clouds
11:00 PM 26.6 °F 14.7 °F 24.8 °F 93% 30.09 in 10.0 mi WSW 15.0 mph 25.3 mph N/A   Mostly Cloudy
11:20 PM 26.6 °F 16.2 °F 26.6 °F 100% 30.08 in 10.0 mi West 11.5 mph 28.8 mph N/A   Mostly Cloudy
11:40 PM 26.6 °F 16.8 °F 26.6 °F 100% 30.09 in 10.0 mi WSW 10.4 mph 21.9 mph N/A   Overcast